Terminal Aerodrome Forecast
Issued by NWS Sterling, VA

Current Version | Previous Version | Graphics & Text | Print | Product List | Glossary On
Versions: 1 2 3 4 5 6 7 8 9 10 11 12 13 14 15 16 17 18 19 20 21 22 23 24 25
304
FTUS41 KLWX 240159 AAC
TAFMRB
TAF AMD
KMRB 240159Z 2402/2424 VRB03KT P6SM -RA BKN020 OVC025
     FM240500 VRB03KT P6SM -RA BKN008 OVC025
     FM240900 VRB03KT 4SM BR BKN008 OVC025
     FM241200 VRB03KT P6SM BKN010 OVC025
     FM241600 12006KT P6SM BKN015 BKN025
     FM241800 13007KT P6SM SCT035 OVC040
     FM242200 13008KT P6SM SCT025 OVC030=

USA.gov is the U.S. government's official web portal to all federal, state and local government web resources and services.